Time;durP1;ratioP1;P1;durP2;ratioP2;P2;SDS_P1;SDS_P2;PMS_P1;PMS_P2;Temp;Humidity;BMP_temperature;BMP_pressure;BME280_temperature;BME280_humidity;BME280_pressure;Samples;Min_cycle;Max_cycle;Signal;HPM_P1;HPM_P2
2023/11/06 00:02:06;;;;;;;4.30;2.17;;;10.50;99.90;;;;;;5087158;28;20261;-63
2023/11/06 00:04:32;;;;;;;3.00;1.40;;;10.50;99.90;;;;;;5085905;28;20676;-63
2023/11/06 00:06:58;;;;;;;4.73;1.47;;;10.60;99.90;;;;;;5088091;28;20546;-62
2023/11/06 00:09:24;;;;;;;2.70;1.17;;;10.60;99.90;;;;;;5085966;28;20417;-63
2023/11/06 00:11:50;;;;;;;2.97;1.20;;;10.60;99.90;;;;;;5088079;28;20436;-63
2023/11/06 00:14:16;;;;;;;2.27;1.30;;;10.60;99.90;;;;;;5087056;28;20926;-64
2023/11/06 00:16:43;;;;;;;2.93;1.20;;;10.70;99.90;;;;;;5092521;28;20413;-64
2023/11/06 00:19:08;;;;;;;3.17;1.33;;;10.70;99.90;;;;;;5091118;28;20253;-64
2023/11/06 00:21:35;;;;;;;5.43;1.40;;;10.70;99.90;;;;;;5057772;28;20536;-63
2023/11/06 00:24:01;;;;;;;2.97;1.30;;;10.80;99.90;;;;;;5090029;28;20187;-63
2023/11/06 00:26:27;;;;;;;5.77;1.30;;;10.80;99.90;;;;;;5090966;28;20456;-64
2023/11/06 00:28:53;;;;;;;3.80;2.13;;;10.80;99.90;;;;;;5091636;28;20429;-63
2023/11/06 00:31:19;;;;;;;3.03;1.40;;;10.80;99.90;;;;;;5090747;28;20291;-63
2023/11/06 00:33:45;;;;;;;3.07;1.57;;;10.70;99.90;;;;;;5091056;28;20417;-64
2023/11/06 00:36:22;;;;;;;2.43;1.10;;;10.80;99.90;;;;;;5090310;28;20476;-64
2023/11/06 00:38:48;;;;;;;6.03;1.50;;;10.80;99.90;;;;;;5085366;28;21054;-63
2023/11/06 00:41:14;;;;;;;2.80;1.30;;;10.70;99.90;;;;;;5072273;28;20438;-64
2023/11/06 00:43:40;;;;;;;2.73;1.50;;;10.70;99.90;;;;;;5090990;28;20635;-64
2023/11/06 00:46:06;;;;;;;2.93;1.40;;;10.70;99.90;;;;;;5090839;28;20445;-64
2023/11/06 00:48:33;;;;;;;2.57;1.30;;;10.70;99.90;;;;;;5090763;28;20430;-64
2023/11/06 00:50:59;;;;;;;3.80;1.40;;;10.70;99.90;;;;;;5091111;28;20434;-63
2023/11/06 00:53:25;;;;;;;8.63;1.47;;;10.80;99.90;;;;;;5089468;28;20425;-63
2023/11/06 00:55:52;;;;;;;5.77;1.50;;;10.70;99.90;;;;;;5089002;28;20433;-64
2023/11/06 00:58:18;;;;;;;3.63;1.70;;;10.70;99.90;;;;;;5090187;28;20492;-64
2023/11/06 01:00:44;;;;;;;2.87;2.10;;;10.70;99.90;;;;;;5090895;28;21202;-65
2023/11/06 01:03:13;;;;;;;3.47;1.50;;;10.80;99.90;;;;;;5089182;28;20513;-64
2023/11/06 01:05:38;;;;;;;4.70;1.40;;;10.80;99.90;;;;;;5090752;28;20430;-63
2023/11/06 01:08:05;;;;;;;3.33;1.17;;;10.80;99.90;;;;;;5090443;28;20456;-65
2023/11/06 01:10:34;;;;;;;4.77;2.00;;;10.80;99.90;;;;;;5090614;28;20850;-63
2023/11/06 01:13:00;;;;;;;5.70;1.83;;;10.80;99.90;;;;;;5088323;28;20453;-65
2023/11/06 01:15:27;;;;;;;2.97;1.40;;;10.80;99.90;;;;;;5090692;28;20950;-64
2023/11/06 01:17:53;;;;;;;3.87;1.57;;;10.80;99.90;;;;;;5089733;28;20473;-61
2023/11/06 01:20:20;;;;;;;3.70;1.50;;;10.80;99.90;;;;;;5090254;28;20436;-63
2023/11/06 01:22:47;;;;;;;7.87;2.00;;;10.80;99.90;;;;;;5090715;28;20468;-63
2023/11/06 01:25:13;;;;;;;3.70;1.07;;;10.80;99.90;;;;;;5088809;28;20425;-62
2023/11/06 01:27:38;;;;;;;2.60;1.40;;;10.80;99.90;;;;;;5090325;28;20426;-63
2023/11/06 01:30:06;;;;;;;2.30;1.20;;;10.80;99.90;;;;;;5090078;28;20180;-63
2023/11/06 01:32:33;;;;;;;3.90;1.30;;;10.80;99.90;;;;;;5089018;28;21189;-63
2023/11/06 01:34:58;;;;;;;4.17;1.43;;;10.70;99.90;;;;;;5093713;28;20437;-62
2023/11/06 01:37:26;;;;;;;4.70;1.50;;;10.70;99.90;;;;;;5089455;28;20451;-64
2023/11/06 01:39:52;;;;;;;5.47;1.60;;;10.80;99.90;;;;;;5090185;28;20253;-64
2023/11/06 01:42:17;;;;;;;2.90;1.13;;;10.70;99.90;;;;;;5088678;28;20423;-62
2023/11/06 01:44:43;;;;;;;6.33;1.10;;;10.70;99.90;;;;;;5088228;28;20425;-63
2023/11/06 01:47:09;;;;;;;5.73;1.50;;;10.70;99.90;;;;;;5089788;28;20230;-63
2023/11/06 01:49:36;;;;;;;3.50;1.47;;;10.60;99.90;;;;;;5089526;28;20179;-62
2023/11/06 01:52:06;;;;;;;5.07;1.50;;;10.60;99.90;;;;;;5089878;28;20180;-63
2023/11/06 01:54:33;;;;;;;5.53;1.87;;;10.60;99.90;;;;;;5088559;28;20434;-64
2023/11/06 01:57:00;;;;;;;2.73;1.20;;;10.50;99.90;;;;;;5089332;28;20438;-64
2023/11/06 01:59:26;;;;;;;1.93;0.80;;;10.40;99.90;;;;;;5089252;28;20465;-62
2023/11/06 02:02:04;;;;;;;5.37;1.60;;;10.50;99.90;;;;;;5087833;28;20429;-62
2023/11/06 02:04:30;;;;;;;6.53;1.50;;;10.40;99.90;;;;;;5087808;28;21246;-64
2023/11/06 02:06:56;;;;;;;6.30;1.37;;;10.40;99.90;;;;;;5087106;28;20850;-63
2023/11/06 02:09:22;;;;;;;2.97;1.50;;;10.40;99.90;;;;;;5089274;28;20414;-64
2023/11/06 02:11:48;;;;;;;2.83;1.37;;;10.40;99.90;;;;;;5087906;28;20620;-64
2023/11/06 02:14:13;;;;;;;2.00;1.33;;;10.40;99.90;;;;;;5086951;28;20180;-64
2023/11/06 02:16:39;;;;;;;4.43;1.10;;;10.40;99.90;;;;;;5089334;28;20295;-64
2023/11/06 02:19:07;;;;;;;2.80;1.30;;;10.40;99.90;;;;;;5089590;28;20225;-63
2023/11/06 02:21:34;;;;;;;5.30;1.50;;;10.50;99.90;;;;;;5088713;28;21350;-63
2023/11/06 02:24:00;;;;;;;3.73;1.40;;;10.40;99.90;;;;;;5091583;28;20430;-63
2023/11/06 02:26:26;;;;;;;4.87;1.27;;;10.30;99.90;;;;;;5088520;28;20915;-64
2023/11/06 02:28:52;;;;;;;2.77;1.53;;;10.30;99.90;;;;;;5089615;28;20193;-63
2023/11/06 02:31:18;;;;;;;5.80;1.53;;;10.20;99.90;;;;;;5088911;28;21107;-63
2023/11/06 02:33:44;;;;;;;3.17;1.13;;;10.20;99.90;;;;;;5085499;28;20437;-63
2023/11/06 02:36:10;;;;;;;2.00;1.23;;;10.20;99.90;;;;;;5089490;28;20459;-62
2023/11/06 02:38:35;;;;;;;3.83;1.60;;;10.10;99.90;;;;;;5087998;28;20215;-63
2023/11/06 02:41:02;;;;;;;4.57;1.60;;;10.10;99.90;;;;;;5089061;28;20430;-64
2023/11/06 02:43:27;;;;;;;2.27;1.30;;;10.10;99.90;;;;;;5087716;28;20190;-63
2023/11/06 02:45:55;;;;;;;4.50;1.90;;;10.10;99.90;;;;;;5087960;28;21018;-63
2023/11/06 02:48:21;;;;;;;4.13;1.40;;;10.20;99.90;;;;;;5086703;28;20195;-64
2023/11/06 02:50:47;;;;;;;2.70;1.47;;;10.20;99.90;;;;;;5088520;28;20414;-63
2023/11/06 02:53:13;;;;;;;6.37;1.80;;;10.10;99.90;;;;;;5086405;28;20426;-63
2023/11/06 02:55:38;;;;;;;6.10;1.67;;;10.20;99.90;;;;;;5088058;28;20502;-63
2023/11/06 02:58:05;;;;;;;2.20;1.30;;;10.20;99.90;;;;;;5089149;28;20677;-63
2023/11/06 03:00:31;;;;;;;2.40;1.67;;;10.20;99.90;;;;;;5088250;28;20212;-62
2023/11/06 03:02:57;;;;;;;2.50;1.40;;;10.30;99.90;;;;;;5088445;28;20487;-63
2023/11/06 03:05:22;;;;;;;4.20;1.87;;;10.30;99.90;;;;;;5088345;28;20991;-64
2023/11/06 03:07:49;;;;;;;2.70;1.40;;;10.30;99.90;;;;;;5091567;28;20564;-62
2023/11/06 03:10:14;;;;;;;6.50;2.20;;;10.30;99.90;;;;;;5088803;28;20469;-63
2023/11/06 03:12:41;;;;;;;1.73;1.13;;;10.30;99.90;;;;;;5087588;28;20513;-62
2023/11/06 03:15:07;;;;;;;3.67;1.87;;;10.30;99.90;;;;;;5087911;28;20231;-63
2023/11/06 03:17:33;;;;;;;7.53;2.13;;;10.30;99.90;;;;;;5087841;28;20503;-63
2023/11/06 03:19:59;;;;;;;2.00;1.33;;;10.30;99.90;;;;;;5088605;28;20423;-63
2023/11/06 03:22:25;;;;;;;5.00;1.70;;;10.30;99.90;;;;;;5090746;28;20586;-64
2023/11/06 03:24:51;;;;;;;3.07;1.67;;;10.30;99.90;;;;;;5087315;28;20184;-62
2023/11/06 03:27:16;;;;;;;4.90;1.77;;;10.30;99.90;;;;;;5088661;28;20413;-62
2023/11/06 03:29:42;;;;;;;6.40;1.80;;;10.20;99.90;;;;;;5087727;28;20216;-63
2023/11/06 03:32:08;;;;;;;1.73;1.37;;;10.20;99.90;;;;;;5088011;28;20271;-63
2023/11/06 03:34:34;;;;;;;1.97;1.27;;;10.20;99.90;;;;;;5084143;28;20180;-63
2023/11/06 03:37:00;;;;;;;1.93;1.23;;;10.20;99.90;;;;;;5088302;28;20437;-62
2023/11/06 03:39:25;;;;;;;4.00;2.07;;;10.30;99.90;;;;;;5088467;28;20219;-63
2023/11/06 03:41:51;;;;;;;3.10;1.77;;;10.30;99.90;;;;;;5087763;28;20697;-64
2023/11/06 03:44:17;;;;;;;3.13;1.37;;;10.20;99.90;;;;;;5087844;28;20266;-62
2023/11/06 03:46:43;;;;;;;2.20;1.30;;;10.10;99.90;;;;;;5087542;28;20597;-64
2023/11/06 03:49:09;;;;;;;3.33;1.57;;;10.20;99.90;;;;;;5087492;28;20184;-63
2023/11/06 03:51:35;;;;;;;1.90;1.30;;;10.30;99.90;;;;;;5090163;28;20176;-63
2023/11/06 03:54:01;;;;;;;2.03;1.50;;;10.30;99.90;;;;;;5091262;28;20479;-62
2023/11/06 03:56:27;;;;;;;3.40;1.30;;;10.30;99.90;;;;;;5091409;28;20532;-64
2023/11/06 03:58:52;;;;;;;4.03;1.53;;;10.30;99.90;;;;;;5091775;28;20480;-64
2023/11/06 04:01:18;;;;;;;2.10;1.33;;;10.20;99.90;;;;;;5092108;28;20210;-63
2023/11/06 04:03:44;;;;;;;3.40;1.57;;;10.20;99.90;;;;;;5088000;28;20203;-64
2023/11/06 04:06:10;;;;;;;5.60;1.77;;;10.10;99.90;;;;;;5090716;28;20196;-63
2023/11/06 04:08:35;;;;;;;4.63;1.70;;;10.10;99.90;;;;;;5095650;28;20436;-62
2023/11/06 04:11:01;;;;;;;2.30;1.50;;;10.20;99.90;;;;;;5091568;28;20207;-64
2023/11/06 04:13:27;;;;;;;5.00;3.63;;;10.20;99.90;;;;;;5091381;28;20798;-63
2023/11/06 04:15:53;;;;;;;1.50;1.40;;;10.20;99.90;;;;;;5091116;28;20430;-63
2023/11/06 04:18:18;;;;;;;4.50;2.03;;;10.30;99.90;;;;;;5092028;28;20725;-63
2023/11/06 04:20:44;;;;;;;3.93;1.70;;;10.20;99.90;;;;;;5090344;28;20247;-62
2023/11/06 04:23:10;;;;;;;5.17;1.57;;;10.20;99.90;;;;;;5091468;28;21246;-64
2023/11/06 04:25:36;;;;;;;5.33;1.40;;;10.20;99.90;;;;;;5091475;28;20183;-62
2023/11/06 04:28:03;;;;;;;3.27;1.40;;;10.20;99.90;;;;;;5094317;28;20200;-62
2023/11/06 04:30:29;;;;;;;2.93;1.30;;;10.20;99.90;;;;;;5090618;28;20550;-62
2023/11/06 04:32:55;;;;;;;4.10;1.40;;;10.20;99.90;;;;;;5089970;28;20805;-64
2023/11/06 04:35:20;;;;;;;4.00;1.70;;;10.10;99.90;;;;;;5090603;28;20892;-63
2023/11/06 04:37:46;;;;;;;7.97;2.13;;;10.10;99.90;;;;;;5090141;28;20460;-64
2023/11/06 04:40:12;;;;;;;2.77;1.50;;;10.20;99.90;;;;;;5073047;28;20250;-63
2023/11/06 04:42:40;;;;;;;3.87;1.83;;;10.20;99.90;;;;;;5091137;28;20187;-62
2023/11/06 04:45:08;;;;;;;6.03;1.57;;;10.20;99.90;;;;;;5089509;28;20522;-63
2023/11/06 04:47:34;;;;;;;1.77;1.00;;;10.30;99.90;;;;;;5090895;28;20491;-64
2023/11/06 04:50:00;;;;;;;2.80;1.80;;;10.30;99.90;;;;;;5089928;28;20971;-63
2023/11/06 04:52:26;;;;;;;2.90;1.70;;;10.20;99.90;;;;;;5093374;28;20414;-62
2023/11/06 04:54:51;;;;;;;3.87;1.33;;;10.30;99.90;;;;;;5090023;28;20994;-64
2023/11/06 04:57:17;;;;;;;7.87;1.60;;;10.30;99.90;;;;;;5091392;28;20882;-62
2023/11/06 04:59:43;;;;;;;4.67;2.03;;;10.30;99.90;;;;;;5090915;28;20212;-63
2023/11/06 05:02:08;;;;;;;3.27;1.30;;;10.20;99.90;;;;;;5090089;28;20183;-62
2023/11/06 05:04:34;;;;;;;7.37;1.40;;;10.20;99.90;;;;;;5090356;28;20241;-62
2023/11/06 05:07:02;;;;;;;5.10;1.70;;;10.10;99.90;;;;;;5089395;28;20282;-61
2023/11/06 05:09:28;;;;;;;2.60;1.23;;;10.10;99.90;;;;;;5091186;28;20731;-63
2023/11/06 05:11:54;;;;;;;3.30;1.50;;;10.10;99.90;;;;;;5069713;28;20431;-62
2023/11/06 05:14:20;;;;;;;2.83;1.07;;;10.00;99.90;;;;;;5090155;28;20175;-63
2023/11/06 05:16:45;;;;;;;5.17;1.20;;;10.00;99.90;;;;;;5089971;28;21079;-63
2023/11/06 05:19:12;;;;;;;5.93;1.17;;;10.00;99.90;;;;;;5090138;28;20573;-63
2023/11/06 05:21:38;;;;;;;2.80;1.47;;;10.10;99.90;;;;;;5091251;28;20258;-63
2023/11/06 05:24:04;;;;;;;5.63;1.50;;;10.20;99.90;;;;;;5068332;28;20762;-61
2023/11/06 05:26:30;;;;;;;5.97;1.53;;;10.10;99.90;;;;;;5091190;28;20436;-62
2023/11/06 05:28:56;;;;;;;6.33;1.10;;;10.10;99.90;;;;;;5089376;28;20438;-64
2023/11/06 05:31:22;;;;;;;4.63;1.87;;;10.10;99.90;;;;;;5090296;28;20201;-63
2023/11/06 05:33:51;;;;;;;3.80;1.27;;;10.10;99.90;;;;;;5089990;28;20429;-63
2023/11/06 05:36:17;;;;;;;4.30;1.40;;;10.10;99.90;;;;;;5087210;28;20470;-64
2023/11/06 05:38:44;;;;;;;3.23;1.10;;;10.10;99.90;;;;;;5088107;28;20982;-62
2023/11/06 05:41:10;;;;;;;2.57;1.23;;;10.10;99.90;;;;;;5086354;28;20660;-64
2023/11/06 05:43:36;;;;;;;9.30;1.67;;;10.10;99.90;;;;;;5085075;28;20552;-62
2023/11/06 05:46:03;;;;;;;4.20;1.50;;;10.10;99.90;;;;;;5088064;28;20454;-62
2023/11/06 05:48:28;;;;;;;4.60;1.43;;;10.00;99.90;;;;;;5090753;28;20782;-63
2023/11/06 05:50:54;;;;;;;4.27;2.00;;;10.10;99.90;;;;;;5089907;28;20453;-63
2023/11/06 05:53:19;;;;;;;6.37;1.93;;;10.00;99.90;;;;;;5085342;28;20875;-62
2023/11/06 05:55:48;;;;;;;5.93;1.60;;;9.90;99.90;;;;;;5085615;28;20196;-63
2023/11/06 05:58:14;;;;;;;3.87;1.63;;;10.00;99.90;;;;;;5087669;28;20777;-64
2023/11/06 06:00:40;;;;;;;6.30;1.50;;;10.00;99.90;;;;;;5089100;28;20419;-64
2023/11/06 06:03:08;;;;;;;9.50;2.07;;;10.10;99.90;;;;;;5087296;28;20430;-63
2023/11/06 06:05:33;;;;;;;5.73;2.30;;;10.20;99.90;;;;;;5093472;28;20438;-64
2023/11/06 06:07:59;;;;;;;9.60;2.50;;;10.20;99.90;;;;;;5090309;28;20472;-63
2023/11/06 06:10:25;;;;;;;6.10;1.90;;;10.20;99.90;;;;;;5089155;28;20656;-64
2023/11/06 06:12:51;;;;;;;8.67;1.90;;;10.20;99.90;;;;;;5088354;28;20213;-62
2023/11/06 06:15:17;;;;;;;7.17;2.30;;;10.20;99.90;;;;;;5090577;28;20187;-63
2023/11/06 06:17:43;;;;;;;6.40;2.23;;;10.20;99.90;;;;;;5089943;28;20442;-63
2023/11/06 06:20:12;;;;;;;16.27;2.90;;;10.20;99.90;;;;;;5089110;28;20555;-63
2023/11/06 06:22:42;;;;;;;6.93;3.03;;;10.30;99.90;;;;;;5091058;28;20213;-62
2023/11/06 06:25:08;;;;;;;5.83;2.50;;;10.30;99.90;;;;;;5088046;28;21116;-63
2023/11/06 06:27:37;;;;;;;5.53;2.13;;;10.30;99.90;;;;;;5089503;28;20437;-62
2023/11/06 06:30:06;;;;;;;7.67;2.00;;;10.30;99.90;;;;;;5088648;28;20541;-63
2023/11/06 06:32:32;;;;;;;5.10;2.77;;;10.40;99.90;;;;;;5088407;28;20431;-63
2023/11/06 06:34:58;;;;;;;10.90;2.63;;;10.40;99.90;;;;;;5088086;28;20801;-62
2023/11/06 06:37:24;;;;;;;6.40;2.27;;;10.40;99.90;;;;;;5085802;28;20446;-62
2023/11/06 06:39:50;;;;;;;7.57;2.50;;;10.40;99.90;;;;;;5086667;28;20480;-63
2023/11/06 06:42:17;;;;;;;8.53;2.40;;;10.40;99.90;;;;;;5087903;28;20426;-61
2023/11/06 06:44:43;;;;;;;8.83;2.13;;;10.30;99.90;;;;;;5087516;28;21023;-64
2023/11/06 06:47:09;;;;;;;6.63;2.10;;;10.30;99.90;;;;;;5090686;28;20446;-62
2023/11/06 06:49:41;;;;;;;9.23;2.43;;;10.30;99.90;;;;;;5086805;28;20493;-62
2023/11/06 06:52:08;;;;;;;10.07;2.47;;;10.30;99.90;;;;;;5087746;28;20434;-62
2023/11/06 06:54:34;;;;;;;5.07;2.00;;;10.30;99.90;;;;;;5084772;28;20505;-62
2023/11/06 06:57:01;;;;;;;6.20;2.60;;;10.20;99.90;;;;;;5067010;28;20999;-63
2023/11/06 06:59:26;;;;;;;9.93;2.70;;;10.30;99.90;;;;;;5084707;28;20477;-64
2023/11/06 07:01:53;;;;;;;10.20;2.00;;;10.30;99.90;;;;;;5084736;28;21529;-64
2023/11/06 07:04:19;;;;;;;10.63;2.27;;;10.30;99.90;;;;;;5084679;28;20191;-64
2023/11/06 07:06:46;;;;;;;9.80;2.20;;;10.20;99.90;;;;;;5085917;28;20503;-62
2023/11/06 07:09:12;;;;;;;7.40;2.17;;;10.20;99.90;;;;;;5091097;28;20491;-63
2023/11/06 07:11:38;;;;;;;12.80;2.20;;;10.30;99.90;;;;;;5088565;28;20540;-62
2023/11/06 07:14:03;;;;;;;6.83;2.03;;;10.30;99.90;;;;;;5083170;28;20192;-62
2023/11/06 07:16:29;;;;;;;6.53;2.00;;;10.40;99.90;;;;;;5085510;28;20192;-63
2023/11/06 07:18:55;;;;;;;9.63;2.20;;;10.40;99.90;;;;;;5084167;28;20247;-63
2023/11/06 07:21:21;;;;;;;8.83;2.57;;;10.40;99.90;;;;;;5087300;28;20210;-63
2023/11/06 07:23:47;;;;;;;4.93;1.90;;;10.50;99.90;;;;;;5087191;28;21054;-64
2023/11/06 07:26:14;;;;;;;5.70;2.00;;;10.50;99.90;;;;;;5087843;28;20525;-62
2023/11/06 07:28:39;;;;;;;5.47;2.63;;;10.50;99.90;;;;;;5086723;28;20646;-65
2023/11/06 07:31:05;;;;;;;7.93;2.30;;;10.50;99.90;;;;;;5084969;28;20447;-63
2023/11/06 07:33:31;;;;;;;8.73;2.20;;;10.50;99.90;;;;;;5086430;28;20797;-63
2023/11/06 07:35:56;;;;;;;10.33;2.60;;;10.40;99.90;;;;;;5087700;28;20244;-63
2023/11/06 07:38:22;;;;;;;7.20;2.40;;;10.50;99.90;;;;;;5087478;28;20220;-63
2023/11/06 07:40:48;;;;;;;11.67;1.73;;;10.60;99.90;;;;;;5087774;28;20275;-63
2023/11/06 07:43:13;;;;;;;10.73;5.50;;;10.60;99.90;;;;;;5086375;28;20203;-64
2023/11/06 07:45:39;;;;;;;7.07;2.20;;;10.60;99.90;;;;;;5088976;28;20647;-63
2023/11/06 07:48:05;;;;;;;6.63;2.00;;;10.60;99.90;;;;;;5087407;28;20239;-64
2023/11/06 07:50:34;;;;;;;6.30;2.30;;;10.60;99.90;;;;;;5087806;28;20423;-64
2023/11/06 07:53:01;;;;;;;9.60;2.60;;;10.60;99.90;;;;;;5083777;28;20459;-62
2023/11/06 07:55:27;;;;;;;7.67;1.93;;;10.60;99.90;;;;;;5086940;28;20422;-64
2023/11/06 07:57:53;;;;;;;4.70;1.57;;;10.70;99.90;;;;;;5087657;28;20794;-64
2023/11/06 08:00:19;;;;;;;9.10;2.90;;;10.70;99.90;;;;;;5086945;28;20172;-65
2023/11/06 08:02:45;;;;;;;5.53;1.73;;;10.70;99.90;;;;;;5086599;28;20453;-62
2023/11/06 08:05:11;;;;;;;7.50;2.47;;;10.70;99.90;;;;;;5066612;28;22677;-62
2023/11/06 08:07:40;;;;;;;6.90;1.93;;;10.70;99.90;;;;;;5087392;28;20437;-62
2023/11/06 08:10:14;;;;;;;5.33;1.93;;;10.70;99.90;;;;;;5087587;28;20524;-65
2023/11/06 08:12:40;;;;;;;5.00;1.77;;;10.70;99.90;;;;;;5086945;28;20513;-64
2023/11/06 08:15:10;;;;;;;4.30;1.83;;;10.70;99.90;;;;;;5086906;28;21014;-62
2023/11/06 08:17:36;;;;;;;4.77;1.83;;;10.70;99.90;;;;;;5084940;28;20430;-62
2023/11/06 08:20:02;;;;;;;4.37;1.60;;;10.80;99.90;;;;;;5087392;28;20561;-64
2023/11/06 08:22:29;;;;;;;5.87;2.03;;;10.80;99.90;;;;;;5087764;28;20429;-64
2023/11/06 08:24:55;;;;;;;9.10;1.80;;;10.90;99.90;;;;;;5086169;28;20480;-62
2023/11/06 08:27:21;;;;;;;8.90;2.20;;;10.90;99.90;;;;;;5087996;28;20529;-63
2023/11/06 08:29:46;;;;;;;6.63;1.90;;;10.90;99.90;;;;;;5091304;28;20433;-63
2023/11/06 08:32:12;;;;;;;9.33;2.00;;;10.90;99.90;;;;;;5086557;28;20188;-65
2023/11/06 08:34:42;;;;;;;5.43;1.70;;;10.80;99.90;;;;;;5085551;28;20230;-62
2023/11/06 08:37:10;;;;;;;8.53;2.40;;;11.00;99.90;;;;;;5086434;28;20580;-62
2023/11/06 08:39:41;;;;;;;6.20;1.83;;;11.30;99.90;;;;;;5089380;28;20568;-62
2023/11/06 08:42:07;;;;;;;7.23;1.67;;;11.40;99.90;;;;;;5090157;28;20498;-63
2023/11/06 08:44:33;;;;;;;16.90;3.17;;;11.40;99.90;;;;;;5094105;28;20434;-63
2023/11/06 08:46:59;;;;;;;3.50;1.53;;;11.40;99.90;;;;;;5091297;28;20290;-62
2023/11/06 08:49:24;;;;;;;6.20;1.73;;;11.40;99.90;;;;;;5091193;28;20432;-62
2023/11/06 08:51:50;;;;;;;5.73;1.37;;;11.30;99.90;;;;;;5089834;28;20185;-64
2023/11/06 08:54:16;;;;;;;10.27;2.97;;;11.30;99.90;;;;;;5088220;28;20180;-63
2023/11/06 08:56:41;;;;;;;5.17;2.20;;;11.30;99.90;;;;;;5090950;28;20188;-62
2023/11/06 08:59:07;;;;;;;8.83;2.17;;;11.20;99.90;;;;;;5091135;28;20208;-64
2023/11/06 09:01:33;;;;;;;8.97;1.60;;;11.10;99.90;;;;;;5091024;28;20615;-62
2023/11/06 09:03:58;;;;;;;8.17;2.00;;;11.20;99.90;;;;;;5089885;28;20192;-63
2023/11/06 09:06:25;;;;;;;5.10;2.37;;;11.20;99.90;;;;;;5090408;28;20525;-64
2023/11/06 09:08:51;;;;;;;4.90;1.67;;;11.10;99.90;;;;;;5093541;28;20200;-65
2023/11/06 09:11:16;;;;;;;6.90;1.93;;;11.10;99.90;;;;;;5090237;28;20421;-64
2023/11/06 09:13:43;;;;;;;7.40;1.40;;;11.00;99.90;;;;;;5089791;28;20188;-63
2023/11/06 09:16:09;;;;;;;6.70;3.40;;;11.10;99.90;;;;;;5090878;28;20271;-64
2023/11/06 09:18:38;;;;;;;8.03;2.40;;;11.10;99.90;;;;;;5090026;28;20472;-65
2023/11/06 09:21:07;;;;;;;5.00;2.40;;;11.20;99.90;;;;;;5088076;28;20462;-63
2023/11/06 09:23:33;;;;;;;5.33;1.50;;;11.30;99.90;;;;;;5089575;28;20496;-65
2023/11/06 09:25:58;;;;;;;7.73;2.20;;;11.30;99.90;;;;;;5090136;28;20422;-62
2023/11/06 09:28:25;;;;;;;6.53;1.70;;;11.40;99.90;;;;;;5090392;28;20177;-62
2023/11/06 09:30:50;;;;;;;3.63;1.47;;;11.50;99.90;;;;;;5089171;28;20185;-63
2023/11/06 09:33:16;;;;;;;9.30;1.60;;;11.70;99.90;;;;;;5091242;28;20418;-65
2023/11/06 09:35:42;;;;;;;6.17;2.13;;;11.80;99.90;;;;;;5091816;28;20259;-64
2023/11/06 09:38:07;;;;;;;5.40;1.80;;;12.00;99.90;;;;;;5090283;28;20699;-65
2023/11/06 09:40:33;;;;;;;4.80;1.63;;;12.20;99.90;;;;;;5090239;28;20215;-65
2023/11/06 09:42:59;;;;;;;4.20;1.57;;;12.40;99.90;;;;;;5092463;28;20195;-65
2023/11/06 09:45:25;;;;;;;7.83;2.40;;;12.60;99.90;;;;;;5089940;28;20510;-63
2023/11/06 09:47:52;;;;;;;5.83;1.60;;;12.80;99.90;;;;;;5088491;28;20529;-64
2023/11/06 09:50:23;;;;;;;7.20;1.77;;;13.10;99.90;;;;;;5071890;28;20205;-64
2023/11/06 09:52:53;;;;;;;6.80;1.57;;;13.30;99.90;;;;;;5069208;28;20831;-62
2023/11/06 09:55:19;;;;;;;5.73;1.20;;;13.50;99.90;;;;;;5090397;28;21005;-65
2023/11/06 09:57:49;;;;;;;3.90;1.80;;;13.60;99.90;;;;;;5089401;28;20440;-64
2023/11/06 10:00:16;;;;;;;3.63;1.20;;;13.80;99.90;;;;;;5089928;28;20433;-63
2023/11/06 10:02:48;;;;;;;6.57;1.80;;;13.90;99.90;;;;;;5088861;28;20466;-65
2023/11/06 10:05:15;;;;;;;5.80;1.63;;;14.00;99.90;;;;;;5086935;28;20438;-64
2023/11/06 10:07:45;;;;;;;3.07;1.37;;;14.10;99.90;;;;;;5089356;28;20415;-65
2023/11/06 10:10:19;;;;;;;7.50;1.47;;;14.20;99.90;;;;;;5088474;28;20517;-62
2023/11/06 10:12:58;;;;;;;5.63;1.40;;;14.20;99.90;;;;;;5089165;28;20430;-64
2023/11/06 10:15:27;;;;;;;5.70;1.67;;;14.30;99.90;;;;;;5088882;28;20453;-63
2023/11/06 10:17:53;;;;;;;4.77;1.60;;;14.10;99.90;;;;;;5088704;28;20467;-62
2023/11/06 10:20:25;;;;;;;5.03;1.60;;;14.10;99.90;;;;;;5089371;28;20856;-63
2023/11/06 10:22:55;;;;;;;5.00;1.20;;;14.10;99.90;;;;;;5087936;28;20997;-64
2023/11/06 10:25:28;;;;;;;5.00;1.47;;;14.10;99.90;;;;;;5085757;28;20419;-62
2023/11/06 10:27:56;;;;;;;6.07;1.77;;;14.00;99.90;;;;;;5089007;28;20452;-64
2023/11/06 10:30:22;;;;;;;4.50;1.40;;;13.80;99.90;;;;;;5088581;28;20426;-64
2023/11/06 10:32:48;;;;;;;5.30;1.30;;;13.80;99.90;;;;;;5089094;28;20464;-62
2023/11/06 10:35:18;;;;;;;4.70;1.97;;;13.80;99.90;;;;;;5087736;28;20513;-65
2023/11/06 10:37:45;;;;;;;7.10;1.60;;;13.80;99.90;;;;;;5089199;28;20191;-63
2023/11/06 10:40:18;;;;;;;4.83;1.20;;;13.80;99.90;;;;;;5088625;28;20426;-62
2023/11/06 10:42:51;;;;;;;4.83;1.60;;;13.70;99.90;;;;;;5091973;28;20430;-63
2023/11/06 10:45:18;;;;;;;5.23;1.50;;;13.60;99.90;;;;;;5088422;28;21127;-62
2023/11/06 10:47:50;;;;;;;7.47;1.43;;;13.70;99.90;;;;;;5089170;28;20446;-63
2023/11/06 10:50:20;;;;;;;4.50;1.50;;;13.80;99.90;;;;;;5070173;28;20430;-63
2023/11/06 10:52:53;;;;;;;6.03;1.77;;;13.70;99.90;;;;;;5090719;28;20443;-64
2023/11/06 10:55:22;;;;;;;5.10;1.70;;;13.60;99.90;;;;;;5087361;28;20418;-64
2023/11/06 10:57:51;;;;;;;4.17;1.43;;;13.70;99.90;;;;;;5088394;28;20436;-62
2023/11/06 11:00:19;;;;;;;5.70;1.50;;;13.60;99.90;;;;;;5084982;28;20789;-63
2023/11/06 11:02:50;;;;;;;4.23;1.03;;;13.60;99.90;;;;;;5088351;28;20431;-62
2023/11/06 11:05:18;;;;;;;7.40;1.80;;;13.60;99.90;;;;;;5087797;28;20509;-63
2023/11/06 11:07:47;;;;;;;6.23;2.03;;;13.60;99.90;;;;;;5085689;28;20427;-65
2023/11/06 11:10:17;;;;;;;2.40;1.10;;;13.50;99.90;;;;;;5087550;28;20823;-62
2023/11/06 11:12:48;;;;;;;5.23;1.10;;;13.50;99.90;;;;;;5086584;28;20465;-63
2023/11/06 11:15:14;;;;;;;5.87;1.40;;;13.40;99.90;;;;;;5085817;28;20435;-64
2023/11/06 11:17:55;;;;;;;9.30;2.00;;;13.40;99.90;;;;;;5090424;28;20434;-63
2023/11/06 11:20:21;;;;;;;7.47;1.53;;;13.40;99.90;;;;;;5087962;28;20314;-64
2023/11/06 11:23:02;;;;;;;5.03;1.10;;;13.40;99.90;;;;;;5087396;28;20441;-64
2023/11/06 11:25:53;;;;;;;5.13;1.60;;;13.30;99.90;;;;;;5087642;28;20880;-62
2023/11/06 11:28:18;;;;;;;4.70;1.10;;;13.30;99.90;;;;;;5091345;28;20493;-64
2023/11/06 11:30:44;;;;;;;3.97;1.10;;;13.20;99.90;;;;;;5088776;28;20419;-62
2023/11/06 11:33:11;;;;;;;6.03;1.50;;;13.30;99.90;;;;;;5068983;28;20884;-62
2023/11/06 11:35:36;;;;;;;1.70;1.10;;;13.30;99.90;;;;;;5088674;28;20318;-65
2023/11/06 11:38:02;;;;;;;3.70;1.10;;;13.40;99.90;;;;;;5087935;28;20423;-63
2023/11/06 11:40:40;;;;;;;3.33;1.17;;;13.30;99.90;;;;;;5086168;28;20180;-64
2023/11/06 11:43:25;;;;;;;2.40;1.00;;;13.20;99.90;;;;;;5087310;28;20434;-62
2023/11/06 11:45:51;;;;;;;2.97;1.40;;;13.00;99.90;;;;;;5088473;28;20449;-63
2023/11/06 11:48:18;;;;;;;4.00;1.23;;;13.00;99.90;;;;;;5085596;28;21018;-63
2023/11/06 11:50:44;;;;;;;3.00;1.00;;;13.00;99.90;;;;;;5088716;28;21248;-63
2023/11/06 11:53:33;;;;;;;2.00;0.80;;;12.90;99.90;;;;;;5087164;28;20516;-63
2023/11/06 11:55:59;;;;;;;3.23;1.13;;;12.90;99.90;;;;;;5087975;28;20426;-63
2023/11/06 11:58:25;;;;;;;4.50;1.33;;;12.90;99.90;;;;;;5088117;28;20492;-64
2023/11/06 12:00:57;;;;;;;3.70;1.20;;;12.90;99.90;;;;;;5091847;28;21021;-62
2023/11/06 12:03:24;;;;;;;2.73;0.80;;;12.90;99.90;;;;;;5086143;28;20532;-64
2023/11/06 12:05:59;;;;;;;4.27;1.10;;;12.80;99.90;;;;;;5088538;28;20427;-65
2023/11/06 12:08:26;;;;;;;3.90;0.87;;;12.90;99.90;;;;;;5087497;28;21310;-63
2023/11/06 12:10:53;;;;;;;3.00;0.80;;;12.90;99.90;;;;;;5087761;28;20445;-63
2023/11/06 12:13:22;;;;;;;2.47;1.20;;;12.90;99.90;;;;;;5089527;28;20418;-63
2023/11/06 12:15:49;;;;;;;4.53;1.10;;;12.90;99.90;;;;;;5091956;28;21069;-64
2023/11/06 12:18:16;;;;;;;3.10;0.93;;;13.00;99.90;;;;;;5094597;28;20480;-65
2023/11/06 12:20:45;;;;;;;5.33;1.00;;;13.10;99.90;;;;;;5092240;28;20445;-64
2023/11/06 12:23:11;;;;;;;2.70;0.87;;;13.30;99.90;;;;;;5090681;28;20600;-64
2023/11/06 12:25:39;;;;;;;1.83;0.73;;;13.50;99.90;;;;;;5092130;28;20433;-65
2023/11/06 12:28:12;;;;;;;4.10;0.87;;;13.60;99.90;;;;;;5091704;28;20188;-64
2023/11/06 12:30:40;;;;;;;3.27;1.00;;;13.50;99.90;;;;;;5088723;28;20628;-65
2023/11/06 12:33:17;;;;;;;2.93;1.13;;;13.50;99.90;;;;;;5090855;28;20434;-63
2023/11/06 12:35:47;;;;;;;1.37;0.53;;;13.50;99.90;;;;;;5090939;28;20428;-64
2023/11/06 12:38:13;;;;;;;3.73;1.07;;;13.40;99.90;;;;;;5090316;28;20465;-65
2023/11/06 12:40:46;;;;;;;1.23;0.60;;;13.40;99.90;;;;;;5090739;28;20568;-63
2023/11/06 12:43:15;;;;;;;3.13;0.93;;;13.30;99.90;;;;;;5088948;28;20437;-65
2023/11/06 12:45:42;;;;;;;1.80;0.70;;;13.30;99.90;;;;;;5091253;28;20988;-63